createdAt,value
2018-02-07T00:00:31.036Z,95841.16
2018-02-07T00:02:56.970Z,95839.75
2018-02-07T00:05:24.917Z,95840.09
2018-02-07T00:07:50.856Z,95836.46
2018-02-07T00:10:19.550Z,95836.55
2018-02-07T00:12:47.132Z,95832.87
2018-02-07T00:15:14.349Z,95831.13
2018-02-07T00:17:40.277Z,95831.35
2018-02-07T00:20:06.240Z,95831.73
2018-02-07T00:22:32.846Z,95834.47
2018-02-07T00:24:58.747Z,95834.21
2018-02-07T00:27:26.394Z,95833.09
2018-02-07T00:29:52.330Z,95832.28
2018-02-07T00:32:21.793Z,95828.70
2018-02-07T00:34:47.728Z,95835.02
2018-02-07T00:37:15.342Z,95830.25
2018-02-07T00:39:41.796Z,95830.37
2018-02-07T00:42:11.507Z,95829.82
2018-02-07T00:44:37.486Z,95830.07
2018-02-07T00:47:06.456Z,95829.73
2018-02-07T00:49:32.398Z,95833.98
2018-02-07T00:51:59.601Z,95833.30
2018-02-07T00:54:26.552Z,95832.11
2018-02-07T00:56:52.462Z,95829.67
2018-02-07T00:59:18.406Z,95830.15
2018-02-07T01:01:44.335Z,95835.90
2018-02-07T01:04:11.722Z,95830.66
2018-02-07T01:06:37.681Z,95831.67
2018-02-07T01:09:06.916Z,95832.53
2018-02-07T01:11:32.837Z,95833.34
2018-02-07T01:14:00.657Z,95839.19
2018-02-07T01:16:26.599Z,95838.95
2018-02-07T01:18:55.372Z,95844.38
2018-02-07T01:21:21.285Z,95842.41
2018-02-07T01:23:50.058Z,95843.61
2018-02-07T01:26:15.981Z,95838.73
2018-02-07T01:28:44.687Z,95840.55
2018-02-07T01:31:10.600Z,95842.16
2018-02-07T01:33:36.502Z,95839.69
2018-02-07T01:36:02.449Z,95838.87
2018-02-07T01:38:28.371Z,95840.70
2018-02-07T01:40:57.910Z,95835.74
2018-02-07T01:43:23.858Z,95839.03
2018-02-07T01:45:52.986Z,95838.41
2018-02-07T01:48:18.890Z,95836.71
2018-02-07T01:50:46.215Z,95843.18
2018-02-07T01:53:12.156Z,95847.09
2018-02-07T01:55:41.250Z,95847.36
2018-02-07T01:58:07.745Z,95849.11
2018-02-07T02:00:35.586Z,95851.12
2018-02-07T02:03:01.494Z,95849.45
2018-02-07T02:05:30.416Z,95852.44
2018-02-07T02:07:56.346Z,95849.14
2018-02-07T02:10:22.283Z,95845.70
2018-02-07T02:12:48.236Z,95849.77
2018-02-07T02:15:14.201Z,95851.47
2018-02-07T02:17:42.804Z,95850.07
2018-02-07T02:20:09.131Z,95852.41
2018-02-07T02:22:38.198Z,95847.02
2018-02-07T02:25:04.128Z,95848.64
2018-02-07T02:27:33.151Z,95854.06
2018-02-07T02:29:59.117Z,95852.78
2018-02-07T02:32:26.331Z,95848.48
2018-02-07T02:34:52.257Z,95855.59
2018-02-07T02:37:21.797Z,95858.81
2018-02-07T02:39:47.729Z,95859.58
2018-02-07T02:42:15.480Z,95859.66
2018-02-07T02:44:41.445Z,95866.36
2018-02-07T02:47:07.356Z,95874.80
2018-02-07T02:49:33.284Z,95873.62
2018-02-07T02:51:59.228Z,95872.08
2018-02-07T02:54:28.926Z,95878.34
2018-02-07T02:56:54.839Z,95874.51
2018-02-07T02:59:23.273Z,95869.51
2018-02-07T03:01:49.199Z,95869.78
2018-02-07T03:04:16.485Z,95863.33
2018-02-07T03:06:42.426Z,95861.42
2018-02-07T03:09:11.283Z,95863.56
2018-02-07T03:11:37.241Z,95869.63
2018-02-07T03:14:06.677Z,95866.58
2018-02-07T03:16:32.599Z,95867.73
2018-02-07T03:19:02.423Z,95869.17
2018-02-07T03:21:28.365Z,95873.12
2018-02-07T03:23:54.299Z,95875.83
2018-02-07T03:26:20.203Z,95876.19
2018-02-07T03:28:46.142Z,95881.61
2018-02-07T03:31:13.072Z,95881.53
2018-02-07T03:33:38.974Z,95875.94
2018-02-07T03:36:08.220Z,95878.80
2018-02-07T03:38:34.155Z,95873.86
2018-02-07T03:41:03.352Z,95873.39
2018-02-07T03:43:29.258Z,95870.72
2018-02-07T03:45:57.060Z,95869.61
2018-02-07T03:48:22.989Z,95864.16
2018-02-07T03:50:52.803Z,95864.12
2018-02-07T03:53:18.739Z,95867.28
2018-02-07T03:55:46.257Z,95866.17
2018-02-07T03:58:12.205Z,95866.30
2018-02-07T04:00:38.946Z,95867.92
2018-02-07T04:03:04.876Z,95870.57
2018-02-07T04:05:30.815Z,95870.19
2018-02-07T04:07:58.328Z,95868.14
2018-02-07T04:10:24.280Z,95872.53
2018-02-07T04:12:53.483Z,95868.69
2018-02-07T04:15:19.421Z,95868.98
2018-02-07T04:17:47.268Z,95871.08
2018-02-07T04:20:13.370Z,95876.41
2018-02-07T04:22:42.600Z,95880.42
2018-02-07T04:25:08.504Z,95871.75
2018-02-07T04:27:37.843Z,95876.91
2018-02-07T04:30:03.780Z,95872.70
2018-02-07T04:32:32.807Z,95874.36
2018-02-07T04:34:58.726Z,95878.37
2018-02-07T04:37:24.649Z,95874.58
2018-02-07T04:39:51.309Z,95872.02
2018-02-07T04:42:17.256Z,95878.59
2018-02-07T04:44:43.216Z,95874.91
2018-02-07T04:47:09.120Z,95868.77
2018-02-07T04:49:38.044Z,95870.59
2018-02-07T04:52:04.010Z,95868.24
2018-02-07T04:54:33.473Z,95868.24
2018-02-07T04:56:59.400Z,95876.03
2018-02-07T04:59:28.899Z,95875.09
2018-02-07T05:01:54.879Z,95874.88
2018-02-07T05:04:22.621Z,95876.41
2018-02-07T05:06:48.524Z,95876.24
2018-02-07T05:09:17.980Z,95876.33
2018-02-07T05:11:43.917Z,95881.28
2018-02-07T05:14:09.849Z,95876.75
2018-02-07T05:16:35.789Z,95869.66
2018-02-07T05:19:01.755Z,95873.84
2018-02-07T05:21:28.473Z,95870.87
2018-02-07T05:23:54.408Z,95872.97
2018-02-07T05:26:23.764Z,95870.27
2018-02-07T05:28:49.683Z,95861.78
2018-02-07T05:31:19.603Z,95872.55
2018-02-07T05:33:45.517Z,95871.52
2018-02-07T05:36:12.751Z,95870.82
2018-02-07T05:38:38.711Z,95868.50
2018-02-07T05:41:08.575Z,95873.20
2018-02-07T05:43:34.522Z,95874.66
2018-02-07T05:46:02.236Z,95872.34
2018-02-07T05:48:28.245Z,95879.09
2018-02-07T05:50:54.146Z,95880.13
2018-02-07T05:53:20.052Z,95880.25
2018-02-07T05:55:45.983Z,95876.22
2018-02-07T05:58:15.247Z,95881.41
2018-02-07T06:00:42.196Z,95880.43
2018-02-07T06:03:08.409Z,95889.42
2018-02-07T06:05:34.475Z,95898.56
2018-02-07T06:08:03.231Z,95902.58
2018-02-07T06:10:29.137Z,95903.05
2018-02-07T06:12:59.065Z,95903.09
2018-02-07T06:15:25.000Z,95906.37
2018-02-07T06:17:52.498Z,95902.78
2018-02-07T06:20:18.426Z,95906.75
2018-02-07T06:22:47.193Z,95909.34
2018-02-07T06:25:13.764Z,95914.50
2018-02-07T06:27:39.697Z,95912.57
2018-02-07T06:30:05.614Z,95912.23
2018-02-07T06:32:31.576Z,95914.08
2018-02-07T06:34:58.991Z,95915.84
2018-02-07T06:37:24.945Z,95929.30
2018-02-07T06:39:53.693Z,95930.15
2018-02-07T06:42:19.618Z,95937.66
2018-02-07T06:44:48.449Z,95934.48
2018-02-07T06:47:14.364Z,95930.85
2018-02-07T06:49:43.551Z,95930.16
2018-02-07T06:52:09.475Z,95937.28
2018-02-07T06:54:39.045Z,95932.53
2018-02-07T06:57:04.963Z,95933.81
2018-02-07T06:59:32.795Z,95937.58
2018-02-07T07:01:58.716Z,95933.39
2018-02-07T07:04:24.621Z,95941.38
2018-02-07T07:06:50.577Z,95942.14
2018-02-07T07:09:16.532Z,95943.11
2018-02-07T07:11:44.440Z,95949.34
2018-02-07T07:14:10.356Z,95946.89
2018-02-07T07:16:39.160Z,95951.05
2018-02-07T07:19:05.094Z,95959.78
2018-02-07T07:21:34.479Z,95964.26
2018-02-07T07:24:01.206Z,95954.05
2018-02-07T07:26:29.088Z,95956.99
2018-02-07T07:28:55.023Z,95960.07
2018-02-07T07:31:24.542Z,95959.30
2018-02-07T07:33:50.515Z,95961.78
2018-02-07T07:36:17.952Z,95962.88
2018-02-07T07:38:43.916Z,95971.18
2018-02-07T07:41:09.842Z,95977.55
2018-02-07T07:43:35.796Z,95976.66
2018-02-07T07:46:01.737Z,95986.19
2018-02-07T07:48:30.706Z,95985.59
2018-02-07T07:50:56.661Z,95988.45
2018-02-07T07:53:24.316Z,95988.62
2018-02-07T07:55:50.844Z,95994.89
2018-02-07T07:58:21.645Z,96001.13
2018-02-07T08:00:48.169Z,95994.51
2018-02-07T08:03:14.144Z,95996.65
2018-02-07T08:05:40.076Z,95994.38
2018-02-07T08:08:09.126Z,95996.29
2018-02-07T08:10:35.057Z,95995.95
2018-02-07T08:13:04.172Z,96004.37
2018-02-07T08:15:30.090Z,96003.98
2018-02-07T08:17:56.075Z,95996.22
2018-02-07T08:20:22.005Z,96000.37
2018-02-07T08:22:47.957Z,96008.31
2018-02-07T08:25:15.558Z,96009.26
2018-02-07T08:27:41.495Z,96002.95
2018-02-07T08:30:10.528Z,96009.47
2018-02-07T08:32:36.505Z,96012.73
2018-02-07T08:35:05.484Z,96012.66
2018-02-07T08:37:31.432Z,96017.27
2018-02-07T08:40:00.717Z,96020.44
2018-02-07T08:42:26.643Z,96019.80
2018-02-07T08:44:54.157Z,96018.73
2018-02-07T08:47:20.102Z,96016.43
2018-02-07T08:49:49.221Z,96027.16
2018-02-07T08:52:15.165Z,96027.27
2018-02-07T08:54:41.079Z,96027.25
2018-02-07T08:57:06.991Z,96041.15
2018-02-07T08:59:32.905Z,96043.27
2018-02-07T09:02:01.189Z,96038.30
2018-02-07T09:04:27.113Z,96034.02
2018-02-07T09:06:56.317Z,96033.55
2018-02-07T09:09:22.265Z,96036.04
2018-02-07T09:11:49.751Z,96037.66
2018-02-07T09:14:15.678Z,96033.41
2018-02-07T09:16:45.538Z,96037.84
2018-02-07T09:19:11.461Z,96031.55
2018-02-07T09:21:39.294Z,96033.16
2018-02-07T09:24:05.294Z,96027.00
2018-02-07T09:26:34.792Z,96019.70
2018-02-07T09:29:00.759Z,96016.04
2018-02-07T09:31:26.693Z,96017.08
2018-02-07T09:33:52.647Z,96012.75
2018-02-07T09:36:18.567Z,96019.80
2018-02-07T09:38:45.604Z,96026.64
2018-02-07T09:41:11.537Z,96024.83
2018-02-07T09:43:41.014Z,96028.26
2018-02-07T09:46:07.775Z,96026.73
2018-02-07T09:48:35.917Z,96026.30
2018-02-07T09:51:01.870Z,96027.30
2018-02-07T09:53:31.196Z,96028.92
2018-02-07T09:55:57.948Z,96030.06
2018-02-07T09:58:24.579Z,96039.80
2018-02-07T10:00:50.501Z,96047.24
2018-02-07T10:03:19.437Z,96050.93
2018-02-07T10:05:45.354Z,96053.03
2018-02-07T10:08:11.272Z,96052.45
2018-02-07T10:10:37.187Z,96050.66
2018-02-07T10:13:03.133Z,96055.90
2018-02-07T10:15:32.270Z,96051.27
2018-02-07T10:17:58.218Z,96053.56
2018-02-07T10:20:25.856Z,96055.13
2018-02-07T10:22:51.778Z,96061.02
2018-02-07T10:25:21.389Z,96060.02
2018-02-07T10:27:47.366Z,96052.94
2018-02-07T10:30:14.844Z,96058.13
2018-02-07T10:32:40.773Z,96056.75
2018-02-07T10:35:10.003Z,96053.37
2018-02-07T10:37:35.919Z,96055.41
2018-02-07T10:40:05.108Z,96058.84
2018-02-07T10:42:31.031Z,96050.32
2018-02-07T10:44:56.967Z,96046.52
2018-02-07T10:47:22.893Z,96054.97
2018-02-07T10:49:48.829Z,96052.36
2018-02-07T10:52:15.990Z,96056.36
2018-02-07T10:54:42.092Z,96054.78
2018-02-07T10:57:10.864Z,96058.05
2018-02-07T10:59:36.829Z,96058.23
2018-02-07T11:02:05.696Z,96059.11
2018-02-07T11:04:31.776Z,96058.17
2018-02-07T11:07:01.325Z,96063.50
2018-02-07T11:09:27.252Z,96066.64
2018-02-07T11:11:56.684Z,96070.52
2018-02-07T11:14:22.594Z,96070.67
2018-02-07T11:16:50.395Z,96070.00
2018-02-07T11:19:16.290Z,96074.05
2018-02-07T11:21:42.225Z,96072.04
2018-02-07T11:24:08.152Z,96075.31
2018-02-07T11:26:34.090Z,96074.80
2018-02-07T11:29:01.799Z,96073.41
2018-02-07T11:31:27.707Z,96078.95
2018-02-07T11:33:57.489Z,96082.77
2018-02-07T11:36:23.415Z,96078.48
2018-02-07T11:38:52.720Z,96079.53
2018-02-07T11:41:18.680Z,96073.13
2018-02-07T11:43:45.861Z,96077.41
2018-02-07T11:46:11.769Z,96076.04
2018-02-07T11:48:40.955Z,96077.03
2018-02-07T11:51:06.922Z,96077.64
2018-02-07T11:53:36.665Z,96078.45
2018-02-07T11:56:02.572Z,96068.70
2018-02-07T11:58:28.496Z,96072.62
2018-02-07T12:00:54.445Z,96067.40
2018-02-07T12:03:20.386Z,96069.06
2018-02-07T12:05:46.798Z,96070.34
2018-02-07T12:08:12.716Z,96070.14
2018-02-07T12:10:42.393Z,96068.73
2018-02-07T12:13:09.250Z,96068.58
2018-02-07T12:15:36.929Z,96074.34
2018-02-07T12:18:02.876Z,96065.11
2018-02-07T12:20:32.405Z,96064.02
2018-02-07T12:22:58.320Z,96068.15
2018-02-07T12:25:25.560Z,96063.26
2018-02-07T12:27:51.497Z,96061.28
2018-02-07T12:30:20.870Z,96071.12
2018-02-07T12:32:46.849Z,96070.27
2018-02-07T12:35:12.778Z,96071.61
2018-02-07T12:37:38.701Z,96070.75
2018-02-07T12:40:04.630Z,96074.56
2018-02-07T12:42:31.952Z,96072.85
2018-02-07T12:44:57.887Z,96071.39
2018-02-07T12:47:28.048Z,96074.67
2018-02-07T12:49:53.972Z,96072.14
2018-02-07T12:52:21.689Z,96073.60
2018-02-07T12:54:47.645Z,96072.65
2018-02-07T12:57:16.999Z,96075.00
2018-02-07T12:59:43.504Z,96073.03
2018-02-07T13:02:10.961Z,96067.75
2018-02-07T13:04:36.879Z,96065.05
2018-02-07T13:07:06.355Z,96068.95
2018-02-07T13:09:32.272Z,96064.30
2018-02-07T13:11:58.181Z,96060.97
2018-02-07T13:14:24.138Z,96057.73
2018-02-07T13:16:50.093Z,96055.28
2018-02-07T13:19:19.155Z,96053.16
2018-02-07T13:21:45.095Z,96055.85
2018-02-07T13:24:12.190Z,96055.13
2018-02-07T13:26:38.125Z,96061.91
2018-02-07T13:29:07.663Z,96056.81
2018-02-07T13:31:33.596Z,96060.61
2018-02-07T13:34:02.644Z,96061.73
2018-02-07T13:36:28.536Z,96057.68
2018-02-07T13:38:57.944Z,96055.56
2018-02-07T13:41:23.875Z,96061.60
2018-02-07T13:43:51.520Z,96059.47
2018-02-07T13:46:17.448Z,96062.08
2018-02-07T13:48:43.379Z,96067.63
2018-02-07T13:51:09.286Z,96065.30
2018-02-07T13:53:35.218Z,96067.41
2018-02-07T13:56:04.372Z,96070.47
2018-02-07T13:58:30.276Z,96072.34
2018-02-07T14:00:57.886Z,96068.66
2018-02-07T14:03:23.810Z,96079.26
2018-02-07T14:05:53.370Z,96079.01
2018-02-07T14:08:19.300Z,96077.45
2018-02-07T14:10:46.892Z,96076.78
2018-02-07T14:13:12.800Z,96084.66
2018-02-07T14:15:41.728Z,96087.55
2018-02-07T14:18:07.695Z,96088.17
2018-02-07T14:20:37.148Z,96086.45
2018-02-07T14:23:03.051Z,96094.98
2018-02-07T14:25:29.008Z,96089.41
2018-02-07T14:27:54.923Z,96092.06
2018-02-07T14:30:20.844Z,96093.08
2018-02-07T14:32:47.950Z,96102.45
2018-02-07T14:35:13.869Z,96098.27
2018-02-07T14:37:43.326Z,96099.78
2018-02-07T14:40:09.244Z,96100.81
2018-02-07T14:42:38.406Z,96101.05
2018-02-07T14:45:04.315Z,96096.47
2018-02-07T14:47:32.177Z,96103.89
2018-02-07T14:49:58.091Z,96096.59
2018-02-07T14:52:26.859Z,96100.27
2018-02-07T14:54:52.776Z,96101.89
2018-02-07T14:57:21.532Z,96108.45
2018-02-07T14:59:47.447Z,96104.23
2018-02-07T15:02:13.393Z,96106.99
2018-02-07T15:04:39.313Z,96111.95
2018-02-07T15:07:05.265Z,96112.44
2018-02-07T15:09:35.189Z,96113.94
2018-02-07T15:12:01.106Z,96115.73
2018-02-07T15:14:28.201Z,96116.63
2018-02-07T15:16:54.125Z,96120.52
2018-02-07T15:19:22.953Z,96119.77
2018-02-07T15:21:48.886Z,96123.31
2018-02-07T15:24:18.753Z,96133.49
2018-02-07T15:26:44.674Z,96134.11
2018-02-07T15:29:13.777Z,96133.30
2018-02-07T15:31:40.601Z,96133.30
2018-02-07T15:34:06.850Z,96127.33
2018-02-07T15:36:32.767Z,96130.91
2018-02-07T15:38:58.692Z,96129.51
2018-02-07T15:41:24.623Z,96136.08
2018-02-07T15:43:50.581Z,96136.95
2018-02-07T15:46:20.030Z,96141.20
2018-02-07T15:48:45.935Z,96143.28
2018-02-07T15:51:13.545Z,96139.96
2018-02-07T15:53:39.481Z,96140.97
2018-02-07T15:56:08.740Z,96146.59
2018-02-07T15:58:34.661Z,96149.43
2018-02-07T16:01:03.924Z,96150.39
2018-02-07T16:03:29.878Z,96159.83
2018-02-07T16:05:57.421Z,96161.66
2018-02-07T16:08:23.373Z,96161.05
2018-02-07T16:10:52.078Z,96156.23
2018-02-07T16:13:17.975Z,96165.63
2018-02-07T16:15:43.916Z,96174.23
2018-02-07T16:18:09.834Z,96171.09
2018-02-07T16:20:35.769Z,96179.34
2018-02-07T16:23:05.382Z,96182.16
2018-02-07T16:25:31.340Z,96179.96
2018-02-07T16:27:58.709Z,96180.59
2018-02-07T16:30:24.660Z,96179.70
2018-02-07T16:32:54.068Z,96178.86
2018-02-07T16:35:20.557Z,96191.34
2018-02-07T16:37:49.678Z,96202.43
2018-02-07T16:40:15.596Z,96202.97
2018-02-07T16:42:42.636Z,96208.58
2018-02-07T16:45:08.547Z,96214.00
2018-02-07T16:47:38.751Z,96213.30
2018-02-07T16:50:04.714Z,96220.00
2018-02-07T16:52:30.614Z,96222.47
2018-02-07T16:54:56.546Z,96224.36
2018-02-07T16:57:22.509Z,96226.08
2018-02-07T16:59:49.768Z,96230.64
2018-02-07T17:02:15.704Z,96228.78
2018-02-07T17:04:45.166Z,96235.43
2018-02-07T17:07:11.100Z,96236.25
2018-02-07T17:09:40.463Z,96240.05
2018-02-07T17:12:06.417Z,96234.62
2018-02-07T17:14:33.768Z,96248.98
2018-02-07T17:16:59.678Z,96254.28
2018-02-07T17:19:28.755Z,96251.46
2018-02-07T17:21:55.677Z,96251.34
2018-02-07T17:24:23.002Z,96258.24
2018-02-07T17:26:48.936Z,96258.96
2018-02-07T17:29:14.852Z,96261.80
2018-02-07T17:31:40.814Z,96265.47
2018-02-07T17:34:06.730Z,96264.84
2018-02-07T17:36:35.905Z,96274.08
2018-02-07T17:39:01.854Z,96271.65
2018-02-07T17:41:30.851Z,96272.47
2018-02-07T17:43:56.800Z,96272.00
2018-02-07T17:46:24.727Z,96282.09
2018-02-07T17:48:50.649Z,96280.47
2018-02-07T17:51:20.468Z,96288.43
2018-02-07T17:53:46.471Z,96297.00
2018-02-07T17:56:13.644Z,96294.60
2018-02-07T17:58:39.594Z,96291.38
2018-02-07T18:01:08.976Z,96297.25
2018-02-07T18:03:34.906Z,96301.83
2018-02-07T18:06:00.848Z,96300.50
2018-02-07T18:08:26.789Z,96308.16
2018-02-07T18:10:52.691Z,96309.19
2018-02-07T18:13:19.824Z,96309.88
2018-02-07T18:15:46.708Z,96310.91
2018-02-07T18:18:16.253Z,96309.15
2018-02-07T18:20:42.188Z,96310.38
2018-02-07T18:23:09.666Z,96314.03
2018-02-07T18:25:35.588Z,96316.59
2018-02-07T18:28:05.059Z,96315.14
2018-02-07T18:30:30.990Z,96319.00
2018-02-07T18:33:01.248Z,96320.37
2018-02-07T18:35:27.181Z,96319.86
2018-02-07T18:37:53.568Z,96318.36
2018-02-07T18:40:19.484Z,96319.69
2018-02-07T18:42:45.408Z,96322.30
2018-02-07T18:45:11.345Z,96323.02
2018-02-07T18:47:37.246Z,96327.95
2018-02-07T18:50:05.080Z,96328.08
2018-02-07T18:52:30.998Z,96329.45
2018-02-07T18:55:00.433Z,96329.33
2018-02-07T18:57:26.376Z,96331.89
2018-02-07T18:59:55.341Z,96333.66
2018-02-07T19:02:21.289Z,96330.99
2018-02-07T19:04:50.923Z,96335.52
2018-02-07T19:07:16.857Z,96334.67
2018-02-07T19:09:44.061Z,96344.44
2018-02-07T19:12:10.048Z,96342.67
2018-02-07T19:14:39.479Z,96343.19
2018-02-07T19:17:05.392Z,96342.55
2018-02-07T19:19:31.339Z,96345.20
2018-02-07T19:21:57.276Z,96342.40
2018-02-07T19:24:23.232Z,96348.75
2018-02-07T19:26:50.788Z,96345.89
2018-02-07T19:29:16.724Z,96346.45
2018-02-07T19:31:46.072Z,96352.09
2018-02-07T19:34:12.048Z,96355.66
2018-02-07T19:36:41.299Z,96354.94
2018-02-07T19:39:07.232Z,96354.55
2018-02-07T19:41:34.792Z,96352.39
2018-02-07T19:44:00.715Z,96353.34
2018-02-07T19:46:30.188Z,96357.02
2018-02-07T19:48:56.154Z,96361.39
2018-02-07T19:51:23.954Z,96362.62
2018-02-07T19:53:49.884Z,96360.92
2018-02-07T19:56:15.837Z,96356.59
2018-02-07T19:58:41.776Z,96361.44
2018-02-07T20:01:07.700Z,96360.20
2018-02-07T20:03:36.701Z,96359.72
2018-02-07T20:06:02.628Z,96362.98
2018-02-07T20:08:32.253Z,96368.94
2018-02-07T20:10:58.172Z,96371.20
2018-02-07T20:13:25.423Z,96371.55
2018-02-07T20:15:51.320Z,96375.13
2018-02-07T20:18:21.172Z,96371.55
2018-02-07T20:20:47.091Z,96373.68
2018-02-07T20:23:14.782Z,96376.84
2018-02-07T20:25:40.686Z,96376.76
2018-02-07T20:28:10.115Z,96382.67
2018-02-07T20:30:36.060Z,96383.00
2018-02-07T20:33:01.985Z,96389.42
2018-02-07T20:35:27.902Z,96394.72
2018-02-07T20:37:53.855Z,96385.34
2018-02-07T20:40:21.121Z,96390.14
2018-02-07T20:42:47.054Z,96386.33
2018-02-07T20:45:15.800Z,96397.52
2018-02-07T20:47:41.746Z,96394.64
2018-02-07T20:50:10.658Z,96395.74
2018-02-07T20:52:36.587Z,96396.91
2018-02-07T20:55:05.504Z,96395.66
2018-02-07T20:57:31.428Z,96396.05
2018-02-07T21:00:00.901Z,96390.48
2018-02-07T21:02:26.830Z,96395.08
2018-02-07T21:04:56.288Z,96397.77
2018-02-07T21:07:22.223Z,96400.30
2018-02-07T21:09:48.187Z,96398.90
2018-02-07T21:12:14.120Z,96400.14
2018-02-07T21:14:40.047Z,96399.88
2018-02-07T21:17:06.681Z,96400.22
2018-02-07T21:19:32.595Z,96397.45
2018-02-07T21:22:02.256Z,96401.12
2018-02-07T21:24:28.231Z,96412.88
2018-02-07T21:26:57.479Z,96406.45
2018-02-07T21:29:23.392Z,96408.55
2018-02-07T21:31:50.840Z,96418.75
2018-02-07T21:34:16.808Z,96414.62
2018-02-07T21:36:47.492Z,96408.75
2018-02-07T21:39:13.477Z,96405.17
2018-02-07T21:41:40.774Z,96407.92
2018-02-07T21:44:06.795Z,96406.84
2018-02-07T21:46:32.760Z,96407.97
2018-02-07T21:48:58.677Z,96408.55
2018-02-07T21:51:24.660Z,96412.80
2018-02-07T21:53:52.111Z,96411.94
2018-02-07T21:58:50.238Z,96417.93
2018-02-07T22:01:16.143Z,96421.86
2018-02-07T22:03:43.731Z,96417.30
2018-02-07T22:06:09.698Z,96420.66
2018-02-07T22:08:35.725Z,96422.12
2018-02-07T22:11:01.693Z,96420.70
2018-02-07T22:13:30.403Z,96430.66
2018-02-07T22:15:56.349Z,96421.55
2018-02-07T22:18:25.327Z,96427.23
2018-02-07T22:20:51.271Z,96423.66
2018-02-07T22:23:17.262Z,96426.87
2018-02-07T22:25:43.174Z,96422.91
2018-02-07T22:28:09.126Z,96423.26
2018-02-07T22:30:38.737Z,96422.02
2018-02-07T22:33:04.641Z,96425.52
2018-02-07T22:35:31.871Z,96428.16
2018-02-07T22:37:57.842Z,96428.27
2018-02-07T22:40:27.228Z,96424.23
2018-02-07T22:42:53.131Z,96427.89
2018-02-07T22:45:22.570Z,96428.78
2018-02-07T22:47:49.290Z,96433.95
2018-02-07T22:50:16.876Z,96426.01
2018-02-07T22:52:42.797Z,96432.53
2018-02-07T22:55:11.745Z,96430.55
2018-02-07T22:57:37.697Z,96432.52
2018-02-07T23:00:03.647Z,96444.17
2018-02-07T23:02:29.600Z,96443.99
2018-02-07T23:04:55.616Z,96449.30
2018-02-07T23:07:22.631Z,96451.28
2018-02-07T23:09:48.611Z,96454.59
2018-02-07T23:12:17.766Z,96458.23
2018-02-07T23:14:43.715Z,96453.88
2018-02-07T23:17:12.878Z,96453.72
2018-02-07T23:19:38.819Z,96456.36
2018-02-07T23:22:08.135Z,96457.06
2018-02-07T23:24:34.887Z,96459.91
2018-02-07T23:27:01.461Z,96459.52
2018-02-07T23:29:27.405Z,96457.56
2018-02-07T23:31:57.068Z,96461.06
2018-02-07T23:34:22.991Z,96457.87
2018-02-07T23:36:48.955Z,96455.20
2018-02-07T23:39:14.894Z,96465.51
2018-02-07T23:41:41.843Z,96456.91
2018-02-07T23:44:07.814Z,96455.19
2018-02-07T23:46:33.773Z,96457.17
2018-02-07T23:49:02.935Z,96456.16
2018-02-07T23:51:28.884Z,96461.47
2018-02-07T23:53:59.497Z,96459.88
2018-02-07T23:56:25.436Z,96465.28
2018-02-07T23:58:51.953Z,96461.90
